sensor_id;sensor_type;location;lat;lon;timestamp;pressure;altitude;pressure_sealevel;temperature;humidity
10958;BME280;5531;42.570;23.676;2022-10-26T00:01:35;92513.31;;;14.10;74.71
10958;BME280;5531;42.570;23.676;2022-10-26T00:04:04;92512.72;;;14.08;75.25
10958;BME280;5531;42.570;23.676;2022-10-26T00:06:33;92501.78;;;14.05;75.76
10958;BME280;5531;42.570;23.676;2022-10-26T00:09:02;92492.25;;;13.97;74.69
10958;BME280;5531;42.570;23.676;2022-10-26T00:11:31;92504.19;;;14.00;74.76
10958;BME280;5531;42.570;23.676;2022-10-26T00:14:03;92519.22;;;13.86;74.77
10958;BME280;5531;42.570;23.676;2022-10-26T00:16:32;92511.72;;;13.83;75.80
10958;BME280;5531;42.570;23.676;2022-10-26T00:19:01;92517.19;;;13.81;76.36
10958;BME280;5531;42.570;23.676;2022-10-26T00:21:30;92517.59;;;13.78;77.37
10958;BME280;5531;42.570;23.676;2022-10-26T00:23:59;92518.59;;;13.70;77.77
10958;BME280;5531;42.570;23.676;2022-10-26T00:26:28;92517.41;;;13.66;78.73
10958;BME280;5531;42.570;23.676;2022-10-26T00:28:57;92519.63;;;13.63;78.27
10958;BME280;5531;42.570;23.676;2022-10-26T00:31:28;92513.34;;;13.57;78.59
10958;BME280;5531;42.570;23.676;2022-10-26T00:33:57;92527.94;;;13.53;77.76
10958;BME280;5531;42.570;23.676;2022-10-26T00:36:27;92519.59;;;13.43;78.30
10958;BME280;5531;42.570;23.676;2022-10-26T00:38:56;92521.59;;;13.27;78.08
10958;BME280;5531;42.570;23.676;2022-10-26T00:41:27;92513.09;;;13.25;76.87
10958;BME280;5531;42.570;23.676;2022-10-26T00:43:57;92514.50;;;13.21;77.14
10958;BME280;5531;42.570;23.676;2022-10-26T00:46:31;92520.75;;;13.13;77.18
10958;BME280;5531;42.570;23.676;2022-10-26T00:49:05;92509.84;;;13.23;78.47
10958;BME280;5531;42.570;23.676;2022-10-26T00:51:40;92523.63;;;13.18;77.20
10958;BME280;5531;42.570;23.676;2022-10-26T00:54:13;92513.09;;;13.18;78.45
10958;BME280;5531;42.570;23.676;2022-10-26T00:56:44;92517.72;;;13.23;79.48
10958;BME280;5531;42.570;23.676;2022-10-26T00:59:14;92501.97;;;13.30;80.05
10958;BME280;5531;42.570;23.676;2022-10-26T01:01:47;92507.00;;;13.31;79.15
10958;BME280;5531;42.570;23.676;2022-10-26T01:04:17;92504.75;;;13.15;79.43
10958;BME280;5531;42.570;23.676;2022-10-26T01:06:46;92496.09;;;13.28;78.49
10958;BME280;5531;42.570;23.676;2022-10-26T01:09:17;92495.91;;;13.36;79.10
10958;BME280;5531;42.570;23.676;2022-10-26T01:11:46;92490.47;;;13.37;79.35
10958;BME280;5531;42.570;23.676;2022-10-26T01:14:17;92494.72;;;13.38;79.43
10958;BME280;5531;42.570;23.676;2022-10-26T01:16:59;92490.66;;;13.43;79.10
10958;BME280;5531;42.570;23.676;2022-10-26T01:22:40;92486.81;;;13.45;78.72
10958;BME280;5531;42.570;23.676;2022-10-26T01:25:19;92492.50;;;13.42;79.30
10958;BME280;5531;42.570;23.676;2022-10-26T01:27:56;92485.59;;;13.41;78.98
10958;BME280;5531;42.570;23.676;2022-10-26T01:30:32;92494.13;;;13.36;79.43
10958;BME280;5531;42.570;23.676;2022-10-26T01:33:19;92489.25;;;13.40;78.95
10958;BME280;5531;42.570;23.676;2022-10-26T01:36:01;92493.50;;;13.41;79.02
10958;BME280;5531;42.570;23.676;2022-10-26T01:38:35;92486.03;;;13.38;78.46
10958;BME280;5531;42.570;23.676;2022-10-26T01:41:12;92495.72;;;13.37;78.60
10958;BME280;5531;42.570;23.676;2022-10-26T01:43:48;92489.84;;;13.35;78.81
10958;BME280;5531;42.570;23.676;2022-10-26T01:46:22;92487.00;;;13.30;79.45
10958;BME280;5531;42.570;23.676;2022-10-26T01:48:56;92492.66;;;13.27;79.26
10958;BME280;5531;42.570;23.676;2022-10-26T01:51:28;92489.22;;;13.27;80.21
10958;BME280;5531;42.570;23.676;2022-10-26T01:53:57;92485.16;;;13.17;79.81
10958;BME280;5531;42.570;23.676;2022-10-26T01:56:28;92485.75;;;13.19;79.95
10958;BME280;5531;42.570;23.676;2022-10-26T01:59:27;92487.38;;;13.20;80.59
10958;BME280;5531;42.570;23.676;2022-10-26T02:05:20;92490.81;;;13.14;80.36
10958;BME280;5531;42.570;23.676;2022-10-26T02:07:57;92495.47;;;13.12;80.26
10958;BME280;5531;42.570;23.676;2022-10-26T02:10:39;92491.41;;;13.10;80.78
10958;BME280;5531;42.570;23.676;2022-10-26T02:13:15;92501.72;;;13.05;80.86
10958;BME280;5531;42.570;23.676;2022-10-26T02:15:53;92495.25;;;13.00;81.36
10958;BME280;5531;42.570;23.676;2022-10-26T02:18:30;92491.16;;;12.91;81.26
10958;BME280;5531;42.570;23.676;2022-10-26T02:21:04;92489.34;;;12.92;81.00
10958;BME280;5531;42.570;23.676;2022-10-26T02:23:36;92494.59;;;12.92;81.36
10958;BME280;5531;42.570;23.676;2022-10-26T02:26:08;92498.47;;;12.89;82.11
10958;BME280;5531;42.570;23.676;2022-10-26T02:28:42;92501.69;;;12.84;82.19
10958;BME280;5531;42.570;23.676;2022-10-26T02:31:13;92494.78;;;12.77;83.25
10958;BME280;5531;42.570;23.676;2022-10-26T02:33:48;92504.66;;;12.68;84.22
10958;BME280;5531;42.570;23.676;2022-10-26T02:36:22;92497.56;;;12.62;83.97
10958;BME280;5531;42.570;23.676;2022-10-26T02:38:53;92496.69;;;12.55;84.32
10958;BME280;5531;42.570;23.676;2022-10-26T02:41:25;92498.94;;;12.58;84.27
10958;BME280;5531;42.570;23.676;2022-10-26T02:44:01;92493.88;;;12.56;84.40
10958;BME280;5531;42.570;23.676;2022-10-26T02:46:32;92493.88;;;12.56;84.88
10958;BME280;5531;42.570;23.676;2022-10-26T02:49:04;92495.91;;;12.54;85.08
10958;BME280;5531;42.570;23.676;2022-10-26T02:51:38;92496.28;;;12.51;85.32
10958;BME280;5531;42.570;23.676;2022-10-26T02:54:13;92496.69;;;12.48;85.97
10958;BME280;5531;42.570;23.676;2022-10-26T02:56:47;92497.50;;;12.49;86.08
10958;BME280;5531;42.570;23.676;2022-10-26T02:59:20;92489.81;;;12.47;85.55
10958;BME280;5531;42.570;23.676;2022-10-26T03:01:51;92495.28;;;12.45;86.07
10958;BME280;5531;42.570;23.676;2022-10-26T03:04:29;92498.50;;;12.47;85.72
10958;BME280;5531;42.570;23.676;2022-10-26T03:06:59;92495.69;;;12.49;85.41
10958;BME280;5531;42.570;23.676;2022-10-26T03:09:28;92491.38;;;12.35;85.57
10958;BME280;5531;42.570;23.676;2022-10-26T03:11:57;92491.19;;;12.36;84.93
10958;BME280;5531;42.570;23.676;2022-10-26T03:14:26;92490.59;;;12.41;84.39
10958;BME280;5531;42.570;23.676;2022-10-26T03:16:55;92497.22;;;12.37;84.07
10958;BME280;5531;42.570;23.676;2022-10-26T03:19:24;92500.72;;;12.44;85.15
10958;BME280;5531;42.570;23.676;2022-10-26T03:21:56;92496.66;;;12.41;85.73
10958;BME280;5531;42.570;23.676;2022-10-26T03:24:25;92514.84;;;12.43;86.37
10958;BME280;5531;42.570;23.676;2022-10-26T03:26:54;92510.44;;;12.43;86.36
10958;BME280;5531;42.570;23.676;2022-10-26T03:29:23;92512.81;;;12.38;87.57
10958;BME280;5531;42.570;23.676;2022-10-26T03:31:52;92512.19;;;12.36;87.34
10958;BME280;5531;42.570;23.676;2022-10-26T03:34:21;92516.44;;;12.31;87.36
10958;BME280;5531;42.570;23.676;2022-10-26T03:36:50;92521.22;;;12.27;87.01
10958;BME280;5531;42.570;23.676;2022-10-26T03:39:21;92528.09;;;12.21;87.56
10958;BME280;5531;42.570;23.676;2022-10-26T03:41:50;92529.25;;;12.12;88.02
10958;BME280;5531;42.570;23.676;2022-10-26T03:44:20;92530.00;;;12.06;87.79
10958;BME280;5531;42.570;23.676;2022-10-26T03:46:49;92527.16;;;12.01;88.46
10958;BME280;5531;42.570;23.676;2022-10-26T03:49:17;92534.59;;;11.97;89.74
10958;BME280;5531;42.570;23.676;2022-10-26T03:51:46;92533.91;;;11.88;90.72
10958;BME280;5531;42.570;23.676;2022-10-26T03:54:15;92531.25;;;11.82;91.57
10958;BME280;5531;42.570;23.676;2022-10-26T03:56:47;92531.06;;;11.83;92.27
10958;BME280;5531;42.570;23.676;2022-10-26T03:59:17;92530.03;;;11.84;91.85
10958;BME280;5531;42.570;23.676;2022-10-26T04:01:46;92530.03;;;11.84;91.37
10958;BME280;5531;42.570;23.676;2022-10-26T04:04:15;92526.22;;;11.87;91.24
10958;BME280;5531;42.570;23.676;2022-10-26T04:06:44;92524.97;;;11.83;91.19
10958;BME280;5531;42.570;23.676;2022-10-26T04:09:13;92528.84;;;11.87;90.58
10958;BME280;5531;42.570;23.676;2022-10-26T04:11:42;92524.19;;;11.82;90.23
10958;BME280;5531;42.570;23.676;2022-10-26T04:14:14;92523.19;;;11.83;90.49
10958;BME280;5531;42.570;23.676;2022-10-26T04:16:43;92524.59;;;11.86;90.83
10958;BME280;5531;42.570;23.676;2022-10-26T04:19:12;92535.28;;;11.84;90.53
10958;BME280;5531;42.570;23.676;2022-10-26T04:21:41;92533.09;;;11.88;91.00
10958;BME280;5531;42.570;23.676;2022-10-26T04:24:10;92528.84;;;11.87;90.80
10958;BME280;5531;42.570;23.676;2022-10-26T04:26:40;92534.28;;;11.85;90.83
10958;BME280;5531;42.570;23.676;2022-10-26T04:29:10;92537.31;;;11.82;91.34
10958;BME280;5531;42.570;23.676;2022-10-26T04:31:41;92528.16;;;11.78;91.78
10958;BME280;5531;42.570;23.676;2022-10-26T04:34:10;92521.50;;;11.76;91.10
10958;BME280;5531;42.570;23.676;2022-10-26T04:36:39;92526.72;;;11.69;92.12
10958;BME280;5531;42.570;23.676;2022-10-26T04:39:08;92529.16;;;11.70;91.59
10958;BME280;5531;42.570;23.676;2022-10-26T04:41:37;92531.59;;;11.72;91.68
10958;BME280;5531;42.570;23.676;2022-10-26T04:44:06;92534.59;;;11.69;92.67
10958;BME280;5531;42.570;23.676;2022-10-26T04:46:35;92535.38;;;11.69;92.69
10958;BME280;5531;42.570;23.676;2022-10-26T04:49:07;92532.75;;;11.69;92.27
10958;BME280;5531;42.570;23.676;2022-10-26T04:51:36;92526.28;;;11.65;93.21
10958;BME280;5531;42.570;23.676;2022-10-26T04:54:05;92533.31;;;11.65;92.64
10958;BME280;5531;42.570;23.676;2022-10-26T04:56:35;92534.16;;;11.65;93.13
10958;BME280;5531;42.570;23.676;2022-10-26T04:59:04;92538.34;;;11.60;92.24
10958;BME280;5531;42.570;23.676;2022-10-26T05:01:33;92553.72;;;11.63;93.18
10958;BME280;5531;42.570;23.676;2022-10-26T05:04:02;92548.47;;;11.63;93.55
10958;BME280;5531;42.570;23.676;2022-10-26T05:06:34;92542.34;;;11.55;93.58
10958;BME280;5531;42.570;23.676;2022-10-26T05:09:03;92561.56;;;11.63;93.97
10958;BME280;5531;42.570;23.676;2022-10-26T05:11:32;92552.91;;;11.62;93.80
10958;BME280;5531;42.570;23.676;2022-10-26T05:14:01;92548.66;;;11.61;93.87
10958;BME280;5531;42.570;23.676;2022-10-26T05:16:30;92555.53;;;11.62;95.19
10958;BME280;5531;42.570;23.676;2022-10-26T05:18:59;92555.34;;;11.64;95.56
10958;BME280;5531;42.570;23.676;2022-10-26T05:21:29;92563.44;;;11.69;95.34
10958;BME280;5531;42.570;23.676;2022-10-26T05:24:00;92557.81;;;11.72;94.97
10958;BME280;5531;42.570;23.676;2022-10-26T05:26:29;92557.00;;;11.71;94.88
10958;BME280;5531;42.570;23.676;2022-10-26T05:28:58;92569.94;;;11.73;94.90
10958;BME280;5531;42.570;23.676;2022-10-26T05:31:27;92561.69;;;11.76;95.08
10958;BME280;5531;42.570;23.676;2022-10-26T05:33:56;92568.56;;;11.77;95.67
10958;BME280;5531;42.570;23.676;2022-10-26T05:36:25;92574.44;;;11.79;95.73
10958;BME280;5531;42.570;23.676;2022-10-26T05:38:57;92576.31;;;11.85;96.01
10958;BME280;5531;42.570;23.676;2022-10-26T05:41:28;92574.91;;;11.89;95.00
10958;BME280;5531;42.570;23.676;2022-10-26T05:43:57;92576.00;;;11.95;95.16
10958;BME280;5531;42.570;23.676;2022-10-26T05:46:27;92578.25;;;11.98;95.19
10958;BME280;5531;42.570;23.676;2022-10-26T05:48:56;92580.91;;;12.05;95.33
10958;BME280;5531;42.570;23.676;2022-10-26T05:51:25;92577.16;;;12.14;93.94
10958;BME280;5531;42.570;23.676;2022-10-26T05:53:54;92589.72;;;12.25;93.90
10958;BME280;5531;42.570;23.676;2022-10-26T05:56:36;92588.97;;;12.32;93.46
10958;BME280;5531;42.570;23.676;2022-10-26T05:59:10;92589.34;;;12.28;93.54
10958;BME280;5531;42.570;23.676;2022-10-26T06:01:53;92592.22;;;12.34;93.29
10958;BME280;5531;42.570;23.676;2022-10-26T06:04:33;92602.34;;;12.37;92.75
10958;BME280;5531;42.570;23.676;2022-10-26T06:07:08;92606.59;;;12.38;92.92
10958;BME280;5531;42.570;23.676;2022-10-26T06:09:39;92597.72;;;12.39;93.34
10958;BME280;5531;42.570;23.676;2022-10-26T06:12:13;92601.38;;;12.44;93.32
10958;BME280;5531;42.570;23.676;2022-10-26T06:14:42;92608.06;;;12.47;93.40
10958;BME280;5531;42.570;23.676;2022-10-26T06:17:23;92617.00;;;12.53;93.31
10958;BME280;5531;42.570;23.676;2022-10-26T06:20:04;92610.97;;;12.59;92.82
10958;BME280;5531;42.570;23.676;2022-10-26T06:22:48;92606.69;;;12.58;93.13
10958;BME280;5531;42.570;23.676;2022-10-26T06:25:28;92610.97;;;12.59;93.10
10958;BME280;5531;42.570;23.676;2022-10-26T06:28:15;92610.06;;;12.80;92.13
10958;BME280;5531;42.570;23.676;2022-10-26T06:30:49;92613.34;;;12.95;91.21
10958;BME280;5531;42.570;23.676;2022-10-26T06:33:18;92621.06;;;13.03;91.16
10958;BME280;5531;42.570;23.676;2022-10-26T06:35:54;92630.22;;;13.08;90.07
10958;BME280;5531;42.570;23.676;2022-10-26T06:38:26;92628.19;;;13.10;90.40
10958;BME280;5531;42.570;23.676;2022-10-26T06:40:58;92619.31;;;13.11;89.85
10958;BME280;5531;42.570;23.676;2022-10-26T06:43:32;92622.34;;;13.14;90.18
10958;BME280;5531;42.570;23.676;2022-10-26T06:46:09;92629.06;;;13.17;90.02
10958;BME280;5531;42.570;23.676;2022-10-26T06:48:48;92626.84;;;13.27;89.95
10958;BME280;5531;42.570;23.676;2022-10-26T06:51:21;92625.66;;;13.30;88.74
10958;BME280;5531;42.570;23.676;2022-10-26T06:53:56;92634.78;;;13.34;89.19
10958;BME280;5531;42.570;23.676;2022-10-26T06:56:27;92632.56;;;13.37;88.68
10958;BME280;5531;42.570;23.676;2022-10-26T06:59:05;92635.03;;;13.46;88.82
10958;BME280;5531;42.570;23.676;2022-10-26T07:01:36;92641.13;;;13.53;88.02
10958;BME280;5531;42.570;23.676;2022-10-26T07:04:05;92639.72;;;13.57;88.95
10958;BME280;5531;42.570;23.676;2022-10-26T07:06:38;92632.03;;;13.62;88.47
10958;BME280;5531;42.570;23.676;2022-10-26T07:09:07;92641.56;;;13.63;87.14
10958;BME280;5531;42.570;23.676;2022-10-26T07:11:36;92639.78;;;13.77;88.09
10958;BME280;5531;42.570;23.676;2022-10-26T07:14:07;92641.38;;;13.85;86.44
10958;BME280;5531;42.570;23.676;2022-10-26T07:16:36;92646.44;;;13.86;86.50
10958;BME280;5531;42.570;23.676;2022-10-26T07:19:05;92642.00;;;13.87;86.28
10958;BME280;5531;42.570;23.676;2022-10-26T07:21:35;92647.06;;;13.88;85.82
10958;BME280;5531;42.570;23.676;2022-10-26T07:24:04;92646.88;;;13.97;85.82
10958;BME280;5531;42.570;23.676;2022-10-26T07:26:33;92651.53;;;13.94;85.09
10958;BME280;5531;42.570;23.676;2022-10-26T07:29:03;92656.19;;;13.99;85.90
10958;BME280;5531;42.570;23.676;2022-10-26T07:31:34;92651.75;;;14.13;85.57
10958;BME280;5531;42.570;23.676;2022-10-26T07:34:04;92649.53;;;14.17;84.08
10958;BME280;5531;42.570;23.676;2022-10-26T07:36:33;92652.75;;;14.19;84.54
10958;BME280;5531;42.570;23.676;2022-10-26T07:39:02;92648.13;;;14.34;84.25
10958;BME280;5531;42.570;23.676;2022-10-26T07:41:32;92651.75;;;14.46;84.13
10958;BME280;5531;42.570;23.676;2022-10-26T07:44:01;92646.47;;;14.60;83.26
10958;BME280;5531;42.570;23.676;2022-10-26T07:46:30;92649.09;;;14.66;81.98
10958;BME280;5531;42.570;23.676;2022-10-26T07:49:02;92646.06;;;14.70;81.72
10958;BME280;5531;42.570;23.676;2022-10-26T07:51:31;92653.75;;;14.71;81.95
10958;BME280;5531;42.570;23.676;2022-10-26T07:54:00;92636.31;;;14.83;81.58
10958;BME280;5531;42.570;23.676;2022-10-26T07:56:29;92647.59;;;15.04;80.41
10958;BME280;5531;42.570;23.676;2022-10-26T07:58:58;92636.84;;;15.06;78.93
10958;BME280;5531;42.570;23.676;2022-10-26T08:01:27;92641.28;;;15.12;79.62
10958;BME280;5531;42.570;23.676;2022-10-26T08:03:56;92635.59;;;15.15;78.94
10958;BME280;5531;42.570;23.676;2022-10-26T08:06:28;92644.28;;;15.22;79.01
10958;BME280;5531;42.570;23.676;2022-10-26T08:08:57;92635.78;;;15.20;79.02
10958;BME280;5531;42.570;23.676;2022-10-26T08:11:26;92636.97;;;15.31;78.92
10958;BME280;5531;42.570;23.676;2022-10-26T08:13:55;92635.50;;;15.35;78.29
10958;BME280;5531;42.570;23.676;2022-10-26T08:16:24;92643.19;;;15.50;77.92
10958;BME280;5531;42.570;23.676;2022-10-26T08:18:53;92631.53;;;15.57;77.15
10958;BME280;5531;42.570;23.676;2022-10-26T08:21:22;92632.31;;;15.65;76.44
10958;BME280;5531;42.570;23.676;2022-10-26T08:23:54;92632.28;;;15.71;75.70
10958;BME280;5531;42.570;23.676;2022-10-26T08:26:23;92642.25;;;15.76;76.52
10958;BME280;5531;42.570;23.676;2022-10-26T08:28:52;92638.53;;;15.84;75.63
10958;BME280;5531;42.570;23.676;2022-10-26T08:31:21;92641.78;;;15.86;75.88
10958;BME280;5531;42.570;23.676;2022-10-26T08:33:50;92636.25;;;15.94;75.96
10958;BME280;5531;42.570;23.676;2022-10-26T08:36:22;92638.22;;;15.99;75.84
10958;BME280;5531;42.570;23.676;2022-10-26T08:38:55;92636.78;;;16.03;74.67
10958;BME280;5531;42.570;23.676;2022-10-26T08:41:32;92636.53;;;16.11;75.10
10958;BME280;5531;42.570;23.676;2022-10-26T08:44:06;92638.47;;;16.22;73.81
10958;BME280;5531;42.570;23.676;2022-10-26T08:46:41;92641.66;;;16.31;73.11
10958;BME280;5531;42.570;23.676;2022-10-26T08:49:17;92645.28;;;16.37;71.51
10958;BME280;5531;42.570;23.676;2022-10-26T08:51:54;92643.81;;;16.41;72.15
10958;BME280;5531;42.570;23.676;2022-10-26T08:54:34;92642.31;;;16.52;72.25
10958;BME280;5531;42.570;23.676;2022-10-26T08:57:17;92646.38;;;16.54;70.92
10958;BME280;5531;42.570;23.676;2022-10-26T08:59:53;92637.31;;;16.62;70.34
10958;BME280;5531;42.570;23.676;2022-10-26T09:02:23;92645.63;;;16.65;69.96
10958;BME280;5531;42.570;23.676;2022-10-26T09:04:53;92640.50;;;16.71;68.84
10958;BME280;5531;42.570;23.676;2022-10-26T09:07:39;92643.69;;;16.79;67.95
10958;BME280;5531;42.570;23.676;2022-10-26T09:10:24;92643.00;;;16.91;66.99
10958;BME280;5531;42.570;23.676;2022-10-26T09:13:03;92644.47;;;17.05;65.72
10958;BME280;5531;42.570;23.676;2022-10-26T09:15:43;92644.69;;;17.22;67.01
10958;BME280;5531;42.570;23.676;2022-10-26T09:18:22;92644.97;;;17.32;66.17
10958;BME280;5531;42.570;23.676;2022-10-26T09:21:04;92643.72;;;17.35;63.90
10958;BME280;5531;42.570;23.676;2022-10-26T09:23:50;92650.13;;;17.27;65.32
10958;BME280;5531;42.570;23.676;2022-10-26T09:26:30;92645.25;;;17.43;64.86
10958;BME280;5531;42.570;23.676;2022-10-26T09:29:02;92639.88;;;17.49;62.67
10958;BME280;5531;42.570;23.676;2022-10-26T09:31:38;92639.66;;;17.51;63.19
10958;BME280;5531;42.570;23.676;2022-10-26T09:34:17;92651.19;;;17.75;63.31
10958;BME280;5531;42.570;23.676;2022-10-26T09:36:52;92650.22;;;17.88;61.80
10958;BME280;5531;42.570;23.676;2022-10-26T09:39:32;92654.59;;;17.94;60.56
10958;BME280;5531;42.570;23.676;2022-10-26T09:42:13;92649.69;;;17.98;60.47
10958;BME280;5531;42.570;23.676;2022-10-26T09:44:48;92653.59;;;18.07;58.78
10958;BME280;5531;42.570;23.676;2022-10-26T09:47:29;92650.06;;;18.13;57.18
10958;BME280;5531;42.570;23.676;2022-10-26T09:50:12;92645.00;;;18.23;58.97
10958;BME280;5531;42.570;23.676;2022-10-26T09:52:42;92647.66;;;18.23;58.40
10958;BME280;5531;42.570;23.676;2022-10-26T09:55:11;92644.22;;;18.35;58.10
10958;BME280;5531;42.570;23.676;2022-10-26T09:57:45;92650.03;;;18.43;56.51
10958;BME280;5531;42.570;23.676;2022-10-26T10:00:15;92644.81;;;18.48;56.45
10958;BME280;5531;42.570;23.676;2022-10-26T10:02:49;92632.81;;;18.58;56.45
10958;BME280;5531;42.570;23.676;2022-10-26T10:05:29;92628.56;;;18.68;54.92
10958;BME280;5531;42.570;23.676;2022-10-26T10:08:15;92636.06;;;18.72;55.48
10958;BME280;5531;42.570;23.676;2022-10-26T10:10:59;92628.97;;;18.84;56.26
10958;BME280;5531;42.570;23.676;2022-10-26T10:13:33;92628.72;;;18.97;55.32
10958;BME280;5531;42.570;23.676;2022-10-26T10:16:06;92631.69;;;19.01;53.00
10958;BME280;5531;42.570;23.676;2022-10-26T10:18:38;92636.22;;;19.00;54.92
10958;BME280;5531;42.570;23.676;2022-10-26T10:21:09;92633.56;;;19.00;54.61
10958;BME280;5531;42.570;23.676;2022-10-26T10:23:47;92621.66;;;19.03;55.38
10958;BME280;5531;42.570;23.676;2022-10-26T10:26:17;92614.38;;;19.10;52.64
10958;BME280;5531;42.570;23.676;2022-10-26T10:28:58;92625.09;;;19.15;52.24
10958;BME280;5531;42.570;23.676;2022-10-26T10:31:30;92619.09;;;19.20;52.62
10958;BME280;5531;42.570;23.676;2022-10-26T10:33:59;92612.34;;;19.29;52.26
10958;BME280;5531;42.570;23.676;2022-10-26T10:36:29;92611.66;;;19.34;51.15
10958;BME280;5531;42.570;23.676;2022-10-26T10:38:58;92608.53;;;19.37;50.07
10958;BME280;5531;42.570;23.676;2022-10-26T10:41:30;92611.53;;;19.40;50.58
10958;BME280;5531;42.570;23.676;2022-10-26T10:44:05;92611.41;;;19.35;51.14
10958;BME280;5531;42.570;23.676;2022-10-26T10:46:36;92611.19;;;19.37;51.02
10958;BME280;5531;42.570;23.676;2022-10-26T10:49:24;92606.81;;;19.42;50.44
10958;BME280;5531;42.570;23.676;2022-10-26T10:51:54;92606.44;;;19.51;52.11
10958;BME280;5531;42.570;23.676;2022-10-26T10:54:28;92599.44;;;19.62;51.33
10958;BME280;5531;42.570;23.676;2022-10-26T10:57:06;92605.53;;;19.74;50.75
10958;BME280;5531;42.570;23.676;2022-10-26T10:59:53;92599.53;;;19.78;50.21
10958;BME280;5531;42.570;23.676;2022-10-26T11:02:53;92611.63;;;19.86;48.93
10958;BME280;5531;42.570;23.676;2022-10-26T11:05:39;92596.63;;;19.80;48.49
10958;BME280;5531;42.570;23.676;2022-10-26T11:08:12;92595.69;;;19.74;48.65
10958;BME280;5531;42.570;23.676;2022-10-26T11:10:49;92590.00;;;19.83;48.09
10958;BME280;5531;42.570;23.676;2022-10-26T11:13:20;92580.06;;;19.90;47.69
10958;BME280;5531;42.570;23.676;2022-10-26T11:15:57;92594.38;;;19.89;47.00
10958;BME280;5531;42.570;23.676;2022-10-26T11:18:32;92586.81;;;19.98;47.33
10958;BME280;5531;42.570;23.676;2022-10-26T11:21:04;92591.91;;;19.99;47.05
10958;BME280;5531;42.570;23.676;2022-10-26T11:23:42;92583.75;;;20.06;46.61
10958;BME280;5531;42.570;23.676;2022-10-26T11:26:19;92591.81;;;20.11;45.68
10958;BME280;5531;42.570;23.676;2022-10-26T11:28:54;92580.63;;;20.09;46.78
10958;BME280;5531;42.570;23.676;2022-10-26T11:31:31;92585.53;;;20.17;46.50
10958;BME280;5531;42.570;23.676;2022-10-26T11:34:15;92592.31;;;20.08;44.88
10958;BME280;5531;42.570;23.676;2022-10-26T11:36:53;92578.44;;;20.06;45.63
10958;BME280;5531;42.570;23.676;2022-10-26T11:39:33;92591.25;;;20.09;45.54
10958;BME280;5531;42.570;23.676;2022-10-26T11:42:10;92586.25;;;20.12;46.17
10958;BME280;5531;42.570;23.676;2022-10-26T11:44:47;92585.22;;;20.13;46.39
10958;BME280;5531;42.570;23.676;2022-10-26T11:47:23;92581.94;;;20.23;45.51
10958;BME280;5531;42.570;23.676;2022-10-26T11:50:03;92580.88;;;20.24;44.73
10958;BME280;5531;42.570;23.676;2022-10-26T11:52:37;92584.59;;;20.23;45.20
10958;BME280;5531;42.570;23.676;2022-10-26T11:55:10;92583.16;;;20.32;44.14
10958;BME280;5531;42.570;23.676;2022-10-26T11:57:40;92581.34;;;20.38;44.12
10958;BME280;5531;42.570;23.676;2022-10-26T12:00:15;92574.69;;;20.36;44.29
10958;BME280;5531;42.570;23.676;2022-10-26T12:02:51;92573.44;;;20.43;43.29
10958;BME280;5531;42.570;23.676;2022-10-26T12:05:31;92574.84;;;20.46;43.27
10958;BME280;5531;42.570;23.676;2022-10-26T12:08:05;92567.72;;;20.51;42.83
10958;BME280;5531;42.570;23.676;2022-10-26T12:10:39;92575.94;;;20.50;42.22
10958;BME280;5531;42.570;23.676;2022-10-26T12:13:21;92565.47;;;20.60;41.84
10958;BME280;5531;42.570;23.676;2022-10-26T12:15:55;92564.53;;;20.66;41.26
10958;BME280;5531;42.570;23.676;2022-10-26T12:18:36;92571.94;;;20.64;40.57
10958;BME280;5531;42.570;23.676;2022-10-26T12:21:08;92568.78;;;20.67;40.80
10958;BME280;5531;42.570;23.676;2022-10-26T12:23:53;92572.81;;;20.70;41.59
10958;BME280;5531;42.570;23.676;2022-10-26T12:26:50;92556.34;;;20.56;43.19
10958;BME280;5531;42.570;23.676;2022-10-26T12:29:38;92559.91;;;20.62;42.56
10958;BME280;5531;42.570;23.676;2022-10-26T12:35:35;92570.16;;;20.70;40.73
10958;BME280;5531;42.570;23.676;2022-10-26T12:41:25;92566.25;;;20.78;42.33
10958;BME280;5531;42.570;23.676;2022-10-26T12:43:56;92568.84;;;20.73;42.11
10958;BME280;5531;42.570;23.676;2022-10-26T12:46:41;92571.28;;;20.74;41.33
10958;BME280;5531;42.570;23.676;2022-10-26T12:52:42;92569.81;;;20.83;41.82
10958;BME280;5531;42.570;23.676;2022-10-26T12:58:44;92571.19;;;20.86;42.17
10958;BME280;5531;42.570;23.676;2022-10-26T13:01:34;92572.47;;;20.83;42.41
10958;BME280;5531;42.570;23.676;2022-10-26T13:07:19;92566.97;;;20.90;43.33
10958;BME280;5531;42.570;23.676;2022-10-26T13:10:04;92566.34;;;20.83;42.98
10958;BME280;5531;42.570;23.676;2022-10-26T13:12:45;92569.09;;;20.71;43.13
10958;BME280;5531;42.570;23.676;2022-10-26T13:15:21;92571.03;;;20.76;43.84
10958;BME280;5531;42.570;23.676;2022-10-26T13:17:57;92571.56;;;20.78;43.85
10958;BME280;5531;42.570;23.676;2022-10-26T13:20:28;92568.59;;;20.91;42.80
10958;BME280;5531;42.570;23.676;2022-10-26T13:22:58;92577.19;;;20.98;42.78
10958;BME280;5531;42.570;23.676;2022-10-26T13:25:31;92570.47;;;21.13;42.75
10958;BME280;5531;42.570;23.676;2022-10-26T13:28:03;92580.06;;;21.36;42.58
10958;BME280;5531;42.570;23.676;2022-10-26T13:30:44;92579.09;;;21.91;41.01
10958;BME280;5531;42.570;23.676;2022-10-26T13:33:26;92580.47;;;22.59;39.38
10958;BME280;5531;42.570;23.676;2022-10-26T13:35:57;92569.91;;;23.17;38.67
10958;BME280;5531;42.570;23.676;2022-10-26T13:38:31;92581.88;;;23.67;37.09
10958;BME280;5531;42.570;23.676;2022-10-26T13:41:13;92582.78;;;23.88;37.56
10958;BME280;5531;42.570;23.676;2022-10-26T13:43:46;92580.41;;;24.12;37.06
10958;BME280;5531;42.570;23.676;2022-10-26T13:46:24;92582.56;;;24.41;36.73
10958;BME280;5531;42.570;23.676;2022-10-26T13:48:59;92572.69;;;24.73;35.40
10958;BME280;5531;42.570;23.676;2022-10-26T13:51:39;92580.72;;;24.37;35.78
10958;BME280;5531;42.570;23.676;2022-10-26T13:54:18;92583.06;;;23.92;36.65
10958;BME280;5531;42.570;23.676;2022-10-26T13:57:03;92588.84;;;23.63;36.88